sensor_id;sensor_type;location;lat;lon;timestamp;pressure;altitude;pressure_sealevel;temperature;humidity
79285;BME280;68734;50.452;11.636;2023-09-08T00:02:16;96074.75;;;12.66;85.62
79285;BME280;68734;50.452;11.636;2023-09-08T00:04:41;96074.19;;;12.64;86.20
79285;BME280;68734;50.452;11.636;2023-09-08T00:07:07;96080.97;;;12.61;87.38
79285;BME280;68734;50.452;11.636;2023-09-08T00:09:32;96079.31;;;12.60;87.38
79285;BME280;68734;50.452;11.636;2023-09-08T00:11:58;96083.31;;;12.52;87.01
79285;BME280;68734;50.452;11.636;2023-09-08T00:14:24;96074.63;;;12.45;86.37
79285;BME280;68734;50.452;11.636;2023-09-08T00:16:51;96078.34;;;12.39;86.66
79285;BME280;68734;50.452;11.636;2023-09-08T00:19:19;96077.53;;;12.38;86.28
79285;BME280;68734;50.452;11.636;2023-09-08T00:21:45;96080.50;;;12.37;86.30
79285;BME280;68734;50.452;11.636;2023-09-08T00:24:10;96081.88;;;12.40;85.96
79285;BME280;68734;50.452;11.636;2023-09-08T00:26:36;96074.25;;;12.36;86.47
79285;BME280;68734;50.452;11.636;2023-09-08T00:29:01;96075.09;;;12.37;86.62
79285;BME280;68734;50.452;11.636;2023-09-08T00:31:27;96077.25;;;12.35;86.95
79285;BME280;68734;50.452;11.636;2023-09-08T00:33:52;96073.97;;;12.33;86.16
79285;BME280;68734;50.452;11.636;2023-09-08T00:36:17;96077.44;;;12.28;86.50
79285;BME280;68734;50.452;11.636;2023-09-08T00:38:45;96074.72;;;12.23;86.93
79285;BME280;68734;50.452;11.636;2023-09-08T00:41:10;96072.75;;;12.18;86.56
79285;BME280;68734;50.452;11.636;2023-09-08T00:43:36;96078.16;;;12.18;87.25
79285;BME280;68734;50.452;11.636;2023-09-08T00:46:01;96074.34;;;12.14;86.39
79285;BME280;68734;50.452;11.636;2023-09-08T00:48:28;96074.06;;;12.11;87.21
79285;BME280;68734;50.452;11.636;2023-09-08T00:50:57;96069.41;;;12.06;87.50
79285;BME280;68734;50.452;11.636;2023-09-08T00:53:23;96068.84;;;12.04;87.30
79285;BME280;68734;50.452;11.636;2023-09-08T00:55:49;96066.66;;;12.01;88.60
79285;BME280;68734;50.452;11.636;2023-09-08T00:58:18;96063.66;;;11.97;87.86
79285;BME280;68734;50.452;11.636;2023-09-08T01:00:43;96071.22;;;11.95;88.67
79285;BME280;68734;50.452;11.636;2023-09-08T01:03:11;96074.72;;;11.96;89.00
79285;BME280;68734;50.452;11.636;2023-09-08T01:05:37;96072.53;;;11.93;88.88
79285;BME280;68734;50.452;11.636;2023-09-08T01:08:03;96074.69;;;11.91;88.43
79285;BME280;68734;50.452;11.636;2023-09-08T01:10:29;96071.66;;;11.87;88.78
79285;BME280;68734;50.452;11.636;2023-09-08T01:12:56;96068.88;;;11.82;88.33
79285;BME280;68734;50.452;11.636;2023-09-08T01:15:22;96073.97;;;11.78;89.04
79285;BME280;68734;50.452;11.636;2023-09-08T01:17:47;96070.72;;;11.76;88.85
79285;BME280;68734;50.452;11.636;2023-09-08T01:20:18;96069.59;;;11.72;88.90
79285;BME280;68734;50.452;11.636;2023-09-08T01:25:53;96064.06;;;11.62;89.49
79285;BME280;68734;50.452;11.636;2023-09-08T01:28:20;96066.22;;;11.60;89.43
79285;BME280;68734;50.452;11.636;2023-09-08T01:30:47;96068.34;;;11.58;89.28
79285;BME280;68734;50.452;11.636;2023-09-08T01:33:13;96070.50;;;11.56;89.59
79285;BME280;68734;50.452;11.636;2023-09-08T01:35:39;96066.44;;;11.53;89.08
79285;BME280;68734;50.452;11.636;2023-09-08T01:38:07;96069.16;;;11.58;89.42
79285;BME280;68734;50.452;11.636;2023-09-08T01:40:35;96066.75;;;11.57;88.74
79285;BME280;68734;50.452;11.636;2023-09-08T01:43:01;96062.91;;;11.53;88.60
79285;BME280;68734;50.452;11.636;2023-09-08T01:45:29;96057.44;;;11.48;88.93
79285;BME280;68734;50.452;11.636;2023-09-08T01:47:54;96065.50;;;11.43;89.53
79285;BME280;68734;50.452;11.636;2023-09-08T01:50:20;96064.38;;;11.38;90.14
79285;BME280;68734;50.452;11.636;2023-09-08T01:52:48;96055.41;;;11.38;90.42
79285;BME280;68734;50.452;11.636;2023-09-08T01:55:15;96061.41;;;11.40;91.94
79285;BME280;68734;50.452;11.636;2023-09-08T01:57:45;96062.22;;;11.41;90.22
79285;BME280;68734;50.452;11.636;2023-09-08T02:00:14;96048.66;;;11.35;89.58
79285;BME280;68734;50.452;11.636;2023-09-08T02:02:41;96046.72;;;11.31;89.74
79285;BME280;68734;50.452;11.636;2023-09-08T02:05:09;96053.94;;;11.25;89.87
79285;BME280;68734;50.452;11.636;2023-09-08T02:07:37;96053.63;;;11.22;90.36
79285;BME280;68734;50.452;11.636;2023-09-08T02:10:03;96050.03;;;11.16;91.49
79285;BME280;68734;50.452;11.636;2023-09-08T02:12:28;96055.38;;;11.11;90.62
79285;BME280;68734;50.452;11.636;2023-09-08T02:14:54;96054.81;;;11.09;91.39
79285;BME280;68734;50.452;11.636;2023-09-08T02:17:21;96045.03;;;11.03;90.75
79285;BME280;68734;50.452;11.636;2023-09-08T02:19:47;96052.97;;;10.92;90.79
79285;BME280;68734;50.452;11.636;2023-09-08T02:22:14;96050.47;;;10.86;90.95
79285;BME280;68734;50.452;11.636;2023-09-08T02:24:40;96053.41;;;10.84;91.60
79285;BME280;68734;50.452;11.636;2023-09-08T02:27:07;96060.94;;;10.82;92.24
79285;BME280;68734;50.452;11.636;2023-09-08T02:29:33;96054.97;;;10.80;91.74
79285;BME280;68734;50.452;11.636;2023-09-08T02:32:01;96060.66;;;10.78;91.05
79285;BME280;68734;50.452;11.636;2023-09-08T02:34:27;96057.38;;;10.76;91.25
79285;BME280;68734;50.452;11.636;2023-09-08T02:36:55;96055.16;;;10.73;91.21
79285;BME280;68734;50.452;11.636;2023-09-08T02:39:21;96055.41;;;10.72;91.19
79285;BME280;68734;50.452;11.636;2023-09-08T02:41:48;96052.94;;;10.70;90.96
79285;BME280;68734;50.452;11.636;2023-09-08T02:44:16;96049.50;;;10.75;91.07
79285;BME280;68734;50.452;11.636;2023-09-08T02:46:41;96051.13;;;10.76;91.52
79285;BME280;68734;50.452;11.636;2023-09-08T02:49:08;96044.69;;;10.77;91.49
79285;BME280;68734;50.452;11.636;2023-09-08T02:51:35;96052.28;;;10.80;92.13
79285;BME280;68734;50.452;11.636;2023-09-08T02:54:01;96052.53;;;10.78;91.48
79285;BME280;68734;50.452;11.636;2023-09-08T02:56:26;96050.31;;;10.75;91.84
79285;BME280;68734;50.452;11.636;2023-09-08T02:58:52;96050.00;;;10.72;91.79
79285;BME280;68734;50.452;11.636;2023-09-08T03:01:20;96042.41;;;10.69;91.72
79285;BME280;68734;50.452;11.636;2023-09-08T03:03:46;96040.19;;;10.66;91.42
79285;BME280;68734;50.452;11.636;2023-09-08T03:06:17;96045.59;;;10.66;90.83
79285;BME280;68734;50.452;11.636;2023-09-08T03:08:44;96042.00;;;10.60;92.78
79285;BME280;68734;50.452;11.636;2023-09-08T03:11:12;96044.97;;;10.58;92.74
79285;BME280;68734;50.452;11.636;2023-09-08T03:13:39;96042.00;;;10.60;92.87
79285;BME280;68734;50.452;11.636;2023-09-08T03:16:08;96043.31;;;10.57;93.19
79285;BME280;68734;50.452;11.636;2023-09-08T03:18:35;96038.88;;;10.68;94.21
79285;BME280;68734;50.452;11.636;2023-09-08T03:21:04;96038.72;;;10.75;93.15
79285;BME280;68734;50.452;11.636;2023-09-08T03:23:45;96039.75;;;10.74;91.65
79285;BME280;68734;50.452;11.636;2023-09-08T03:26:11;96038.13;;;10.73;92.57
79285;BME280;68734;50.452;11.636;2023-09-08T03:28:37;96041.66;;;10.73;92.36
79285;BME280;68734;50.452;11.636;2023-09-08T03:31:04;96036.50;;;10.72;91.86
79285;BME280;68734;50.452;11.636;2023-09-08T03:33:29;96028.06;;;10.68;92.34
79285;BME280;68734;50.452;11.636;2023-09-08T03:35:55;96032.66;;;10.68;92.58
79285;BME280;68734;50.452;11.636;2023-09-08T03:38:21;96033.47;;;10.68;92.54
79285;BME280;68734;50.452;11.636;2023-09-08T03:40:47;96031.03;;;10.67;92.47
79285;BME280;68734;50.452;11.636;2023-09-08T03:43:12;96030.72;;;10.63;93.10
79285;BME280;68734;50.452;11.636;2023-09-08T03:45:38;96028.19;;;10.56;92.63
79285;BME280;68734;50.452;11.636;2023-09-08T03:48:03;96026.50;;;10.50;92.91
79285;BME280;68734;50.452;11.636;2023-09-08T03:50:29;96031.56;;;10.47;93.75
79285;BME280;68734;50.452;11.636;2023-09-08T03:52:55;96026.66;;;10.44;93.34
79285;BME280;68734;50.452;11.636;2023-09-08T03:55:21;96031.25;;;10.43;93.32
79285;BME280;68734;50.452;11.636;2023-09-08T03:57:48;96031.72;;;10.40;93.78
79285;BME280;68734;50.452;11.636;2023-09-08T04:00:14;96027.31;;;10.34;93.17
79285;BME280;68734;50.452;11.636;2023-09-08T04:02:45;96030.41;;;10.26;93.78
79285;BME280;68734;50.452;11.636;2023-09-08T04:05:10;96033.03;;;10.21;93.69
79285;BME280;68734;50.452;11.636;2023-09-08T04:07:36;96026.50;;;10.16;94.00
79285;BME280;68734;50.452;11.636;2023-09-08T04:10:02;96027.78;;;10.14;93.53
79285;BME280;68734;50.452;11.636;2023-09-08T04:12:30;96032.59;;;10.12;94.18
79285;BME280;68734;50.452;11.636;2023-09-08T04:14:55;96023.59;;;10.06;93.79
79285;BME280;68734;50.452;11.636;2023-09-08T04:17:21;96026.00;;;10.03;93.44
79285;BME280;68734;50.452;11.636;2023-09-08T04:19:46;96030.50;;;9.97;93.89
79285;BME280;68734;50.452;11.636;2023-09-08T04:22:12;96033.09;;;9.92;94.51
79285;BME280;68734;50.452;11.636;2023-09-08T04:24:37;96038.91;;;9.84;94.54
79285;BME280;68734;50.452;11.636;2023-09-08T04:27:05;96039.88;;;9.77;95.51
79285;BME280;68734;50.452;11.636;2023-09-08T04:29:30;96037.19;;;9.77;95.20
79285;BME280;68734;50.452;11.636;2023-09-08T04:31:56;96038.25;;;9.76;94.38
79285;BME280;68734;50.452;11.636;2023-09-08T04:34:21;96035.78;;;9.75;94.33
79285;BME280;68734;50.452;11.636;2023-09-08T04:36:47;96036.59;;;9.75;93.84
79285;BME280;68734;50.452;11.636;2023-09-08T04:39:12;96031.78;;;9.77;93.89
79285;BME280;68734;50.452;11.636;2023-09-08T04:41:37;96040.44;;;9.79;93.44
79285;BME280;68734;50.452;11.636;2023-09-08T04:44:04;96030.00;;;9.83;93.47
79285;BME280;68734;50.452;11.636;2023-09-08T04:46:30;96033.84;;;10.04;92.70
79285;BME280;68734;50.452;11.636;2023-09-08T04:48:56;96035.00;;;10.42;91.05
79285;BME280;68734;50.452;11.636;2023-09-08T04:51:23;96041.59;;;10.90;89.26
79285;BME280;68734;50.452;11.636;2023-09-08T04:53:49;96031.66;;;11.40;86.76
79285;BME280;68734;50.452;11.636;2023-09-08T04:56:14;96030.06;;;11.98;83.98
79285;BME280;68734;50.452;11.636;2023-09-08T04:58:40;96030.78;;;12.53;81.05
79285;BME280;68734;50.452;11.636;2023-09-08T05:01:05;96029.16;;;13.10;78.53
79285;BME280;68734;50.452;11.636;2023-09-08T05:03:33;96020.94;;;13.58;76.15
79285;BME280;68734;50.452;11.636;2023-09-08T05:05:58;96023.44;;;13.90;74.56
79285;BME280;68734;50.452;11.636;2023-09-08T05:08:23;96026.72;;;14.44;72.13
79285;BME280;68734;50.452;11.636;2023-09-08T05:10:49;96026.94;;;14.93;70.03
79285;BME280;68734;50.452;11.636;2023-09-08T05:13:16;96024.47;;;15.57;68.43
79285;BME280;68734;50.452;11.636;2023-09-08T05:15:41;96020.84;;;16.17;65.93
79285;BME280;68734;50.452;11.636;2023-09-08T05:18:09;96017.72;;;16.63;64.27
79285;BME280;68734;50.452;11.636;2023-09-08T05:20:34;96013.84;;;16.98;62.93
79285;BME280;68734;50.452;11.636;2023-09-08T05:23:00;96014.75;;;17.37;61.50
79285;BME280;68734;50.452;11.636;2023-09-08T05:25:25;96012.03;;;17.74;60.22
79285;BME280;68734;50.452;11.636;2023-09-08T05:27:50;96022.44;;;17.72;60.28
79285;BME280;68734;50.452;11.636;2023-09-08T05:30:16;96022.31;;;18.21;58.92
79285;BME280;68734;50.452;11.636;2023-09-08T05:32:41;96020.63;;;18.71;57.64
79285;BME280;68734;50.452;11.636;2023-09-08T05:35:07;96018.88;;;18.95;56.81
79285;BME280;68734;50.452;11.636;2023-09-08T05:37:32;96028.06;;;18.52;58.26
79285;BME280;68734;50.452;11.636;2023-09-08T05:39:57;96023.25;;;17.54;61.15
79285;BME280;68734;50.452;11.636;2023-09-08T05:42:25;96029.91;;;16.70;63.79
79285;BME280;68734;50.452;11.636;2023-09-08T05:44:51;96034.63;;;15.96;66.25
79285;BME280;68734;50.452;11.636;2023-09-08T05:47:17;96037.13;;;15.27;68.41
79285;BME280;68734;50.452;11.636;2023-09-08T05:49:42;96031.31;;;14.74;71.17
79285;BME280;68734;50.452;11.636;2023-09-08T05:52:10;96029.69;;;14.37;73.40
79285;BME280;68734;50.452;11.636;2023-09-08T05:54:41;96026.44;;;14.14;73.77
79285;BME280;68734;50.452;11.636;2023-09-08T05:57:06;96027.81;;;13.91;74.64
79285;BME280;68734;50.452;11.636;2023-09-08T05:59:31;96031.00;;;13.73;75.59
79285;BME280;68734;50.452;11.636;2023-09-08T06:01:57;96024.75;;;13.62;76.69
79285;BME280;68734;50.452;11.636;2023-09-08T06:04:22;96027.44;;;13.47;77.96
79285;BME280;68734;50.452;11.636;2023-09-08T06:06:48;96035.56;;;13.42;78.75
79285;BME280;68734;50.452;11.636;2023-09-08T06:09:13;96028.03;;;13.74;78.07
79285;BME280;68734;50.452;11.636;2023-09-08T06:11:40;96027.53;;;14.34;76.04
79285;BME280;68734;50.452;11.636;2023-09-08T06:14:06;96027.53;;;14.44;75.26
79285;BME280;68734;50.452;11.636;2023-09-08T06:16:31;96035.16;;;14.32;75.49
79285;BME280;68734;50.452;11.636;2023-09-08T06:18:57;96034.06;;;14.23;75.92
79285;BME280;68734;50.452;11.636;2023-09-08T06:21:22;96027.25;;;14.15;76.68
79285;BME280;68734;50.452;11.636;2023-09-08T06:23:50;96034.59;;;14.04;77.16
79285;BME280;68734;50.452;11.636;2023-09-08T06:26:16;96019.38;;;13.98;76.74
79285;BME280;68734;50.452;11.636;2023-09-08T06:28:41;96034.06;;;14.02;76.93
79285;BME280;68734;50.452;11.636;2023-09-08T06:31:08;96025.34;;;14.10;77.11
79285;BME280;68734;50.452;11.636;2023-09-08T06:33:34;96029.16;;;14.14;76.86
79285;BME280;68734;50.452;11.636;2023-09-08T06:35:59;96030.25;;;14.29;76.83
79285;BME280;68734;50.452;11.636;2023-09-08T06:38:25;96024.25;;;14.37;76.91
79285;BME280;68734;50.452;11.636;2023-09-08T06:40:50;96032.41;;;14.52;75.96
79285;BME280;68734;50.452;11.636;2023-09-08T06:43:18;96024.25;;;14.68;75.65
79285;BME280;68734;50.452;11.636;2023-09-08T06:45:47;96028.03;;;14.82;74.67
79285;BME280;68734;50.452;11.636;2023-09-08T06:48:16;96021.44;;;15.04;74.50
79285;BME280;68734;50.452;11.636;2023-09-08T06:50:41;96022.44;;;15.28;73.57
79285;BME280;68734;50.452;11.636;2023-09-08T06:53:09;96033.28;;;15.39;73.33
79285;BME280;68734;50.452;11.636;2023-09-08T06:55:35;96034.22;;;15.63;71.85
79285;BME280;68734;50.452;11.636;2023-09-08T06:58:03;96032.53;;;15.83;71.59
79285;BME280;68734;50.452;11.636;2023-09-08T07:00:30;96033.50;;;15.97;70.73
79285;BME280;68734;50.452;11.636;2023-09-08T07:02:55;96031.81;;;16.06;70.16
79285;BME280;68734;50.452;11.636;2023-09-08T07:05:23;96024.34;;;16.22;69.79
79285;BME280;68734;50.452;11.636;2023-09-08T07:07:49;96025.66;;;16.30;69.57
79285;BME280;68734;50.452;11.636;2023-09-08T07:10:14;96029.66;;;16.38;69.54
79285;BME280;68734;50.452;11.636;2023-09-08T07:12:39;96022.22;;;16.48;69.19
79285;BME280;68734;50.452;11.636;2023-09-08T07:15:05;96028.13;;;16.55;69.13
79285;BME280;68734;50.452;11.636;2023-09-08T07:17:31;96028.63;;;16.63;68.68
79285;BME280;68734;50.452;11.636;2023-09-08T07:19:56;96028.28;;;16.69;68.33
79285;BME280;68734;50.452;11.636;2023-09-08T07:22:22;96031.19;;;16.78;68.51
79285;BME280;68734;50.452;11.636;2023-09-08T07:24:47;96024.03;;;16.87;68.27
79285;BME280;68734;50.452;11.636;2023-09-08T07:27:13;96027.16;;;17.00;67.89
79285;BME280;68734;50.452;11.636;2023-09-08T07:29:40;96021.31;;;17.11;68.01
79285;BME280;68734;50.452;11.636;2023-09-08T07:32:06;96029.16;;;17.18;66.68
79285;BME280;68734;50.452;11.636;2023-09-08T07:34:32;96025.25;;;17.24;66.38
79285;BME280;68734;50.452;11.636;2023-09-08T07:36:57;96029.56;;;17.30;66.42
79285;BME280;68734;50.452;11.636;2023-09-08T07:39:22;96032.16;;;17.41;65.78
79285;BME280;68734;50.452;11.636;2023-09-08T07:41:50;96029.00;;;17.52;64.94
79285;BME280;68734;50.452;11.636;2023-09-08T07:44:17;96035.13;;;17.63;64.98
79285;BME280;68734;50.452;11.636;2023-09-08T07:46:42;96031.75;;;17.71;65.56
79285;BME280;68734;50.452;11.636;2023-09-08T07:49:09;96036.25;;;17.81;65.78
79285;BME280;68734;50.452;11.636;2023-09-08T07:51:34;96036.38;;;17.95;65.20
79285;BME280;68734;50.452;11.636;2023-09-08T07:54:00;96031.34;;;18.02;64.73
79285;BME280;68734;50.452;11.636;2023-09-08T07:56:28;96029.31;;;18.08;62.65
79285;BME280;68734;50.452;11.636;2023-09-08T07:58:54;96024.09;;;18.11;63.18
79285;BME280;68734;50.452;11.636;2023-09-08T08:01:21;96031.94;;;18.18;63.68
79285;BME280;68734;50.452;11.636;2023-09-08T08:03:47;96033.88;;;18.31;63.30
79285;BME280;68734;50.452;11.636;2023-09-08T08:06:13;96032.84;;;18.46;62.98
79285;BME280;68734;50.452;11.636;2023-09-08T08:08:39;96031.66;;;18.52;62.59
79285;BME280;68734;50.452;11.636;2023-09-08T08:11:15;96029.31;;;18.60;61.82
79285;BME280;68734;50.452;11.636;2023-09-08T08:13:45;96027.31;;;18.65;61.53
79285;BME280;68734;50.452;11.636;2023-09-08T08:16:11;96027.53;;;18.69;60.29
79285;BME280;68734;50.452;11.636;2023-09-08T08:18:36;96022.44;;;18.76;59.51
79285;BME280;68734;50.452;11.636;2023-09-08T08:21:02;96021.31;;;18.82;59.56
79285;BME280;68734;50.452;11.636;2023-09-08T08:23:29;96029.31;;;18.92;58.69
79285;BME280;68734;50.452;11.636;2023-09-08T08:25:55;96020.00;;;19.07;57.58
79285;BME280;68734;50.452;11.636;2023-09-08T08:28:20;96018.47;;;19.15;58.43
79285;BME280;68734;50.452;11.636;2023-09-08T08:30:46;96018.69;;;19.19;58.53
79285;BME280;68734;50.452;11.636;2023-09-08T08:33:13;96020.00;;;19.21;58.77
79285;BME280;68734;50.452;11.636;2023-09-08T08:35:39;96011.56;;;19.31;57.65
79285;BME280;68734;50.452;11.636;2023-09-08T08:38:04;96030.03;;;19.40;58.26
79285;BME280;68734;50.452;11.636;2023-09-08T08:40:30;96018.34;;;19.48;56.85
79285;BME280;68734;50.452;11.636;2023-09-08T08:42:57;96018.97;;;19.59;56.50
79285;BME280;68734;50.452;11.636;2023-09-08T08:45:24;96016.59;;;19.66;58.22
79285;BME280;68734;50.452;11.636;2023-09-08T08:47:57;96017.75;;;19.79;55.98
79285;BME280;68734;50.452;11.636;2023-09-08T08:50:25;96022.34;;;19.92;57.95
79285;BME280;68734;50.452;11.636;2023-09-08T08:52:51;96017.88;;;19.96;56.10
79285;BME280;68734;50.452;11.636;2023-09-08T08:55:16;96016.63;;;20.02;55.50
79285;BME280;68734;50.452;11.636;2023-09-08T08:57:42;96016.28;;;20.18;56.48
79285;BME280;68734;50.452;11.636;2023-09-08T09:00:12;96009.44;;;20.29;54.29
79285;BME280;68734;50.452;11.636;2023-09-08T09:02:42;96002.41;;;20.37;55.19
79285;BME280;68734;50.452;11.636;2023-09-08T09:05:14;96006.44;;;20.39;54.26
79285;BME280;68734;50.452;11.636;2023-09-08T09:07:42;96005.00;;;20.42;54.80
79285;BME280;68734;50.452;11.636;2023-09-08T09:10:09;96021.66;;;20.45;54.12
79285;BME280;68734;50.452;11.636;2023-09-08T09:12:37;96010.69;;;20.45;54.16
79285;BME280;68734;50.452;11.636;2023-09-08T09:15:06;96008.78;;;20.55;53.69
79285;BME280;68734;50.452;11.636;2023-09-08T09:17:34;96009.19;;;20.62;55.13
79285;BME280;68734;50.452;11.636;2023-09-08T09:20:15;96010.06;;;20.71;53.57
79285;BME280;68734;50.452;11.636;2023-09-08T09:22:43;96009.13;;;20.76;52.95
79285;BME280;68734;50.452;11.636;2023-09-08T09:25:09;96002.69;;;20.80;54.83
79285;BME280;68734;50.452;11.636;2023-09-08T09:27:35;95998.84;;;20.90;53.59
79285;BME280;68734;50.452;11.636;2023-09-08T09:30:03;96001.13;;;20.97;53.03
79285;BME280;68734;50.452;11.636;2023-09-08T09:32:29;95998.75;;;21.04;50.31
79285;BME280;68734;50.452;11.636;2023-09-08T09:34:56;96001.09;;;21.19;51.29
79285;BME280;68734;50.452;11.636;2023-09-08T09:37:23;96002.06;;;21.23;51.00
79285;BME280;68734;50.452;11.636;2023-09-08T09:39:53;96005.63;;;21.32;51.14
79285;BME280;68734;50.452;11.636;2023-09-08T09:42:19;95996.28;;;21.34;50.16
79285;BME280;68734;50.452;11.636;2023-09-08T09:44:52;95995.13;;;21.35;49.99
79285;BME280;68734;50.452;11.636;2023-09-08T09:47:18;96002.75;;;21.38;49.98
79285;BME280;68734;50.452;11.636;2023-09-08T09:49:48;96001.03;;;21.50;51.80
79285;BME280;68734;50.452;11.636;2023-09-08T09:52:21;95993.13;;;21.66;50.33
79285;BME280;68734;50.452;11.636;2023-09-08T09:54:52;95997.53;;;21.76;48.41
79285;BME280;68734;50.452;11.636;2023-09-08T09:57:20;95990.91;;;21.86;51.14
79285;BME280;68734;50.452;11.636;2023-09-08T09:59:46;95998.00;;;21.87;50.04
79285;BME280;68734;50.452;11.636;2023-09-08T10:02:17;95992.38;;;21.92;49.38
79285;BME280;68734;50.452;11.636;2023-09-08T10:04:48;95998.69;;;22.01;48.04
79285;BME280;68734;50.452;11.636;2023-09-08T10:07:19;96000.28;;;22.02;47.52
79285;BME280;68734;50.452;11.636;2023-09-08T10:09:44;95997.22;;;22.04;47.87
79285;BME280;68734;50.452;11.636;2023-09-08T10:12:13;95995.94;;;22.10;47.85
79285;BME280;68734;50.452;11.636;2023-09-08T10:14:41;95986.06;;;22.18;48.80
79285;BME280;68734;50.452;11.636;2023-09-08T10:17:21;95990.28;;;22.24;48.85
79285;BME280;68734;50.452;11.636;2023-09-08T10:19:51;95989.31;;;22.37;47.60
79285;BME280;68734;50.452;11.636;2023-09-08T10:22:23;95990.28;;;22.41;46.77
79285;BME280;68734;50.452;11.636;2023-09-08T10:24:54;95984.91;;;22.45;45.96
79285;BME280;68734;50.452;11.636;2023-09-08T10:27:20;95977.97;;;22.47;45.49
79285;BME280;68734;50.452;11.636;2023-09-08T10:29:49;95970.50;;;22.57;45.64
79285;BME280;68734;50.452;11.636;2023-09-08T10:32:18;95972.59;;;22.60;45.21
79285;BME280;68734;50.452;11.636;2023-09-08T10:34:45;95970.13;;;22.67;44.94
79285;BME280;68734;50.452;11.636;2023-09-08T10:37:20;95964.94;;;22.74;44.31
79285;BME280;68734;50.452;11.636;2023-09-08T10:39:47;95970.88;;;22.85;45.91
79285;BME280;68734;50.452;11.636;2023-09-08T10:44:57;95968.13;;;22.94;43.86
79285;BME280;68734;50.452;11.636;2023-09-08T10:47:31;95972.81;;;23.02;43.40
79285;BME280;68734;50.452;11.636;2023-09-08T10:49:59;95965.34;;;23.02;43.58
79285;BME280;68734;50.452;11.636;2023-09-08T10:52:32;95955.75;;;23.08;41.98
79285;BME280;68734;50.452;11.636;2023-09-08T10:55:03;95963.50;;;23.15;44.79
79285;BME280;68734;50.452;11.636;2023-09-08T10:57:28;95958.13;;;23.19;44.99
79285;BME280;68734;50.452;11.636;2023-09-08T10:59:58;95964.44;;;23.19;45.37
79285;BME280;68734;50.452;11.636;2023-09-08T11:02:36;95956.81;;;23.25;42.72
79285;BME280;68734;50.452;11.636;2023-09-08T11:05:03;95964.09;;;23.29;41.94
79285;BME280;68734;50.452;11.636;2023-09-08T11:07:31;95969.56;;;23.38;40.50
79285;BME280;68734;50.452;11.636;2023-09-08T11:09:57;95970.19;;;23.44;42.23
79285;BME280;68734;50.452;11.636;2023-09-08T11:12:27;95963.03;;;23.43;41.45
79285;BME280;68734;50.452;11.636;2023-09-08T11:14:55;95952.00;;;23.43;40.88
79285;BME280;68734;50.452;11.636;2023-09-08T11:17:27;95952.56;;;23.57;40.95
79285;BME280;68734;50.452;11.636;2023-09-08T11:19:53;95957.91;;;23.62;39.91
79285;BME280;68734;50.452;11.636;2023-09-08T11:22:22;95955.91;;;23.72;40.95
79285;BME280;68734;50.452;11.636;2023-09-08T11:24:51;95959.88;;;23.83;40.83
79285;BME280;68734;50.452;11.636;2023-09-08T11:27:17;95959.22;;;23.86;39.59
79285;BME280;68734;50.452;11.636;2023-09-08T11:29:45;95961.50;;;23.84;38.87
79285;BME280;68734;50.452;11.636;2023-09-08T11:32:11;95962.03;;;23.77;38.68
79285;BME280;68734;50.452;11.636;2023-09-08T11:34:37;95966.19;;;23.83;37.48
79285;BME280;68734;50.452;11.636;2023-09-08T11:37:10;95964.06;;;23.89;37.96
79285;BME280;68734;50.452;11.636;2023-09-08T11:39:39;95962.59;;;23.92;37.85
79285;BME280;68734;50.452;11.636;2023-09-08T11:42:06;95960.16;;;23.90;37.49
79285;BME280;68734;50.452;11.636;2023-09-08T11:44:33;95969.06;;;23.96;37.18
79285;BME280;68734;50.452;11.636;2023-09-08T11:46:59;95959.91;;;24.04;37.99
79285;BME280;68734;50.452;11.636;2023-09-08T11:49:26;95958.53;;;24.10;37.75
79285;BME280;68734;50.452;11.636;2023-09-08T11:51:51;95952.69;;;24.12;36.79
79285;BME280;68734;50.452;11.636;2023-09-08T11:54:17;95954.50;;;24.07;37.08
79285;BME280;68734;50.452;11.636;2023-09-08T11:56:43;95951.25;;;24.05;36.24
79285;BME280;68734;50.452;11.636;2023-09-08T11:59:11;95956.50;;;24.19;37.79
79285;BME280;68734;50.452;11.636;2023-09-08T12:01:39;95955.13;;;24.25;36.79
79285;BME280;68734;50.452;11.636;2023-09-08T12:04:04;95958.03;;;24.29;37.20
79285;BME280;68734;50.452;11.636;2023-09-08T12:06:32;95951.63;;;24.37;36.59
79285;BME280;68734;50.452;11.636;2023-09-08T12:09:00;95948.78;;;24.46;35.63
79285;BME280;68734;50.452;11.636;2023-09-08T12:11:33;95945.03;;;24.51;37.21
79285;BME280;68734;50.452;11.636;2023-09-08T12:14:01;95945.66;;;24.47;37.69
79285;BME280;68734;50.452;11.636;2023-09-08T12:16:31;95937.75;;;24.46;38.33
79285;BME280;68734;50.452;11.636;2023-09-08T12:18:56;95935.31;;;24.44;38.75
79285;BME280;68734;50.452;11.636;2023-09-08T12:21:24;95936.91;;;24.45;35.43
79285;BME280;68734;50.452;11.636;2023-09-08T12:23:53;95939.00;;;24.48;36.41
79285;BME280;68734;50.452;11.636;2023-09-08T12:26:19;95932.88;;;24.64;35.02
79285;BME280;68734;50.452;11.636;2023-09-08T12:28:45;95933.81;;;24.68;37.48
79285;BME280;68734;50.452;11.636;2023-09-08T12:31:13;95937.03;;;24.70;36.10
79285;BME280;68734;50.452;11.636;2023-09-08T12:33:39;95924.63;;;24.76;35.41
79285;BME280;68734;50.452;11.636;2023-09-08T12:36:18;95934.28;;;24.82;37.82
79285;BME280;68734;50.452;11.636;2023-09-08T12:38:48;95921.53;;;24.78;37.52
79285;BME280;68734;50.452;11.636;2023-09-08T12:41:14;95928.75;;;24.70;36.57
79285;BME280;68734;50.452;11.636;2023-09-08T12:43:40;95927.91;;;24.69;38.61
79285;BME280;68734;50.452;11.636;2023-09-08T12:46:05;95926.66;;;24.67;37.94
79285;BME280;68734;50.452;11.636;2023-09-08T12:48:33;95922.75;;;24.68;36.20
79285;BME280;68734;50.452;11.636;2023-09-08T12:50:58;95918.84;;;24.69;35.51
79285;BME280;68734;50.452;11.636;2023-09-08T12:53:24;95914.50;;;24.80;35.03
79285;BME280;68734;50.452;11.636;2023-09-08T12:55:49;95924.38;;;24.81;37.71